Camargo, Illinois
Current Conditions -  °F | °C
As of 1:53 AM on Wednesday 22 Oct 2014 (Local Time) from KCMI Reporting Station
Clear Clear  
Wind Chill: 39°   Ceiling: Unl
Heat Index: 42°   Visibility: 10mi
Dew Point: 37°   Wind: 5mph
Humidity: 82%   Direction: 70°ENE
Pressure: 30.24"   Gusts: NA
Location:  39.8°N, 88.16°W
Report Text: KCMI 220653Z AUTO 07004KT 10SM CLR 06/03 A3024 RMK AO2 SLP243 T00560028 $
Loading
Personal Weather Stations






























Interactive Weather Map
Tropical Storm Tracking
New forecast layout! Learn more

10-Day Weather Forecast

Advertisements
Track Severe Weather on mobile